Bei Facebook empfehlenBei Twitter postenGoogle plusPinterest

Das Wetter im Erzgebirge am 01.02.2015

Wetter und Klima am 01.02.2015 Holzhau im Erzgebirge (630m ü.NN)
Letzte gemessene Temperatur und Uhrzeit der Messung23:45:00 Uhr-4.10 °C
Temperatur (Maximum / Höchstwert) und Uhrzeit der Messung13:15:00 Uhr3.00 °C
Temperatur (Minimum / Tiefstwert) und Uhrzeit der Messung01:00:00-7.10 °C
Errechneter Absolutwert der Temperaturschwankungen zwischen Tmin und Tmax des Tages10.10 K
Errechnete Tagesmitteltemperatur-2.32708 °C
Gesamt - Niederschlag des Tages (in flüssiger Form)0.52 Liter / m²
Luftdruck (Maximum / Höchstwert) und Zeitpunkt der Messung22:30:00 Uhr991.80 hPa
Luftdruck (Minimum / Tiefstwert) und Zeitpunkt der Messung01:45:00 Uhr984.70 hPa
Errechneter Absolutwert der Luftdruckschwankungen des Tages7.10 hPa
Höchste gemessene Windgeschwindigkeit und Uhrzeit der Messung13:15:00 Uhr3.24 km/h
Errechnete Windhäufigkeit in Relation zu den Messwerten des Tages1.04167 %
Niedrigste Windkühle (Windchill) und Zeitpunkt der Messung01:00:00 Uhr-7.10 °C
Taupunkt (Maximum / Höchstwert) und Uhrzeit der Messung11:00:00 Uhr-0.50 °C
Taupunkt (Minimum / Tiefstwert) und Uhrzeit der Messung01:00:00-8.80 °C
Anzahl der automatisch eingelesenen Messwerte 96

Detaillierte Wetter- und Klima- Messwerte für den 01.02.2015 in Holzhau im Erzgebirge (630m ü.NN)
ZeitTemperaturLuftdruckRel. LuftfeuchteWindWindrichtungWindchillTaupunktNiederschlag l/m²
23:45:00-4.10 °C991.50 hPa87.00 %-6.20 °C0.52
23:30:00-3.10 °C991.70 hPa87.00 %-5.20 °C0.52
23:15:00-2.50 °C991.60 hPa88.00 %-4.40 °C0.52
23:00:00-2.20 °C991.50 hPa88.00 %-4.10 °C0.52
22:45:00-2.10 °C991.70 hPa88.00 %-4.00 °C0.52
22:30:00-1.90 °C991.80 hPa89.00 %-3.70 °C0.52
22:15:00-1.90 °C991.50 hPa89.00 %-3.70 °C0.52
22:00:00-1.90 °C991.50 hPa89.00 %-3.70 °C0.52
21:45:00-1.80 °C991.50 hPa89.00 %-3.60 °C0.52
21:30:00-1.90 °C991.50 hPa89.00 %-3.70 °C0.52
21:15:00-1.80 °C991.40 hPa89.00 %-3.60 °C0.52
21:00:00-1.70 °C991.40 hPa89.00 %-3.50 °C0.52
20:45:00-1.70 °C991.40 hPa88.00 %-3.60 °C0.52
20:30:00-1.60 °C991.10 hPa88.00 %-3.50 °C0.52
20:15:00-1.60 °C990.70 hPa88.00 %-3.50 °C0.52
20:00:00-1.60 °C990.70 hPa88.00 %-3.50 °C0.52
19:45:00-1.60 °C990.50 hPa88.00 %-3.50 °C0.52
19:30:00-1.60 °C990.50 hPa88.00 %-3.50 °C0.52
19:15:00-1.70 °C990.40 hPa88.00 %-3.60 °C0.52
19:00:00-1.70 °C990.10 hPa87.00 %-3.80 °C0.52
18:45:00-1.70 °C990.00 hPa87.00 %-3.80 °C0.52
18:30:00-1.80 °C989.90 hPa87.00 %-3.90 °C0.52
18:15:00-1.90 °C989.90 hPa87.00 %-4.00 °C0.52
18:00:00-1.90 °C989.80 hPa87.00 %-4.00 °C0.52
17:45:00-1.80 °C989.80 hPa86.00 %-4.10 °C0.52
17:30:00-1.70 °C989.60 hPa85.00 %-4.10 °C0.52
17:15:00-1.60 °C989.50 hPa85.00 %-4.00 °C0.52
17:00:00-1.50 °C989.40 hPa84.00 %-4.10 °C0.52
16:45:00-1.10 °C989.40 hPa83.00 %-3.90 °C0.52
16:30:00-0.70 °C989.20 hPa82.00 %-3.70 °C0.52
16:15:00-0.40 °C988.90 hPa82.00 %-3.40 °C0.52
16:00:000.10 °C989.00 hPa81.00 %-2.80 °C0.52
15:45:000.60 °C988.80 hPa81.00 %-2.30 °C0.52
15:30:000.90 °C988.80 hPa81.00 %-2.00 °C0.52
15:15:001.20 °C988.80 hPa81.00 %-1.70 °C0.52
15:00:001.00 °C988.60 hPa82.00 %-1.70 °C0.52
14:45:000.60 °C988.60 hPa81.00 %-2.30 °C0.52
14:30:000.90 °C988.80 hPa80.00 %-2.10 °C0.52
14:15:001.10 °C988.60 hPa80.00 %-2.00 °C0.52
14:00:001.30 °C988.40 hPa79.00 %-1.90 °C0.52
13:45:001.80 °C988.30 hPa78.00 %-1.60 °C0.52
13:30:002.40 °C988.20 hPa76.00 %-1.40 °C0.52
13:15:003.00 °C988.20 hPa77.00 %3.24 km/hSSW3.00 °C-0.60 °C0.52
13:00:002.90 °C988.30 hPa77.00 %-0.70 °C0.52
12:45:001.90 °C988.40 hPa77.00 %-1.70 °C 
12:30:001.60 °C988.50 hPa78.00 %-1.80 °C 
12:15:001.40 °C988.40 hPa78.00 %-2.00 °C 
12:00:001.60 °C988.30 hPa78.00 %-1.80 °C 
11:45:001.80 °C988.40 hPa80.00 %-1.30 °C 
11:30:001.90 °C988.30 hPa81.00 %-1.00 °C 
11:15:001.90 °C988.20 hPa81.00 %-1.00 °C 
11:00:001.90 °C988.20 hPa84.00 %-0.50 °C 
10:45:001.20 °C987.80 hPa87.00 %-0.70 °C 
10:30:000.90 °C987.60 hPa89.00 %-0.70 °C 
10:15:000.40 °C987.40 hPa92.00 %-0.70 °C 
10:00:00-0.90 °C987.40 hPa92.00 %-2.20 °C 
09:45:00-2.10 °C987.00 hPa92.00 %-3.40 °C 
09:30:00-2.70 °C987.00 hPa92.00 %-3.90 °C 
09:15:00-2.90 °C986.80 hPa92.00 %-4.10 °C 
09:00:00-2.50 °C986.50 hPa92.00 %-3.80 °C 
08:45:00-2.20 °C986.60 hPa92.00 %-3.50 °C 
08:30:00-2.40 °C986.60 hPa92.00 %-3.70 °C 
08:15:00-2.70 °C986.50 hPa92.00 %-3.90 °C 
08:00:00-3.00 °C986.50 hPa93.00 %-4.10 °C 
07:45:00-3.70 °C986.10 hPa92.00 %-4.90 °C 
07:30:00-4.20 °C986.10 hPa92.00 %-5.40 °C 
07:15:00-4.30 °C985.90 hPa92.00 %-5.50 °C 
07:00:00-4.40 °C985.90 hPa92.00 %-5.60 °C 
06:45:00-4.60 °C985.80 hPa92.00 %-5.80 °C 
06:30:00-4.70 °C985.50 hPa92.00 %-5.90 °C 
06:15:00-4.90 °C985.50 hPa92.00 %-6.10 °C 
06:00:00-5.00 °C985.30 hPa92.00 %-6.20 °C 
05:45:00-5.10 °C985.20 hPa92.00 %-6.30 °C 
05:30:00-5.20 °C985.40 hPa92.00 %-6.40 °C 
05:15:00-5.40 °C985.30 hPa92.00 %-6.60 °C 
05:00:00-5.80 °C985.10 hPa91.00 %-7.20 °C 
04:45:00-5.80 °C985.00 hPa91.00 %-7.20 °C 
04:30:00-5.70 °C985.00 hPa91.00 %-7.10 °C 
04:15:00-5.50 °C985.10 hPa91.00 %-6.90 °C 
04:00:00-5.50 °C985.00 hPa92.00 %-6.70 °C 
03:45:00-5.70 °C984.90 hPa91.00 %-7.10 °C 
03:30:00-5.90 °C985.00 hPa91.00 %-7.30 °C 
03:15:00-5.60 °C985.00 hPa91.00 %-7.00 °C 
03:00:00-5.60 °C985.00 hPa91.00 %-7.00 °C 
02:45:00-5.80 °C985.00 hPa91.00 %-7.20 °C 
02:30:00-6.10 °C985.00 hPa91.00 %-7.50 °C 
02:15:00-6.40 °C985.00 hPa90.00 %-7.90 °C 
02:00:00-6.10 °C985.10 hPa90.00 %-7.60 °C 
01:45:00-6.10 °C984.70 hPa91.00 %-7.50 °C 
01:30:00-6.40 °C984.80 hPa91.00 %-7.80 °C 
01:15:00-6.90 °C984.80 hPa90.00 %-8.40 °C 
01:00:00-7.10 °C984.90 hPa89.00 %-8.80 °C 
00:45:00-7.10 °C985.00 hPa89.00 %-8.80 °C 
00:30:00-6.90 °C984.80 hPa89.00 %-8.60 °C 
00:15:00-6.50 °C984.70 hPa89.00 %-8.20 °C 
00:00:00-6.20 °C984.70 hPa89.00 %-7.90 °C 

Permanenter Link zu dieser Seite: Wetter im Erzgebirge am 01.02.2015
Performance-Info: Die Erstellung der Seite / Statistik(en) / Tabelle(n) erforderte 5 Datenbankserver-Abfrage(n) und dauerte 97 Millisekunden. (Dieser Messwert ist von der Gesamt-Auslastung des Servers abhängig.)
Erzgebirge - Wetter | Erzgebirge - Wetter (Mobilgeräte) | Komplette Klimadatenbank